sensor_id;sensor_type;location;lat;lon;timestamp;temperature;humidity
758;DHT22;363;48.764;9.172;2023-05-24T00:00:04;15.30;99.90
758;DHT22;363;48.764;9.172;2023-05-24T00:02:37;15.10;99.90
758;DHT22;363;48.764;9.172;2023-05-24T00:05:07;15.20;99.90
758;DHT22;363;48.764;9.172;2023-05-24T00:07:34;15.00;99.90
758;DHT22;363;48.764;9.172;2023-05-24T00:09:59;15.50;99.90
758;DHT22;363;48.764;9.172;2023-05-24T00:12:25;15.20;99.90
758;DHT22;363;48.764;9.172;2023-05-24T00:14:51;15.40;99.90
758;DHT22;363;48.764;9.172;2023-05-24T00:17:16;15.10;99.90
758;DHT22;363;48.764;9.172;2023-05-24T00:19:42;15.10;99.90
758;DHT22;363;48.764;9.172;2023-05-24T00:22:07;15.50;99.90
758;DHT22;363;48.764;9.172;2023-05-24T00:24:33;15.20;99.90
758;DHT22;363;48.764;9.172;2023-05-24T00:26:58;15.20;99.90
758;DHT22;363;48.764;9.172;2023-05-24T00:29:24;15.40;99.90
758;DHT22;363;48.764;9.172;2023-05-24T00:31:49;15.40;99.90
758;DHT22;363;48.764;9.172;2023-05-24T00:34:15;15.40;99.90
758;DHT22;363;48.764;9.172;2023-05-24T00:36:40;15.30;99.90
758;DHT22;363;48.764;9.172;2023-05-24T00:39:06;15.00;99.90
758;DHT22;363;48.764;9.172;2023-05-24T00:41:31;15.30;99.90
758;DHT22;363;48.764;9.172;2023-05-24T00:43:57;15.00;99.90
758;DHT22;363;48.764;9.172;2023-05-24T00:46:28;14.90;99.90
758;DHT22;363;48.764;9.172;2023-05-24T00:48:53;15.40;99.90
758;DHT22;363;48.764;9.172;2023-05-24T00:51:20;14.80;99.90
758;DHT22;363;48.764;9.172;2023-05-24T00:53:47;14.80;99.90
758;DHT22;363;48.764;9.172;2023-05-24T00:56:14;14.70;99.90
758;DHT22;363;48.764;9.172;2023-05-24T00:58:41;15.30;99.90
758;DHT22;363;48.764;9.172;2023-05-24T01:01:06;14.80;98.80
758;DHT22;363;48.764;9.172;2023-05-24T01:03:33;15.10;99.20
758;DHT22;363;48.764;9.172;2023-05-24T01:06:02;14.60;99.20
758;DHT22;363;48.764;9.172;2023-05-24T01:14:31;14.60;99.70
758;DHT22;363;48.764;9.172;2023-05-24T01:17:30;14.70;99.30
758;DHT22;363;48.764;9.172;2023-05-24T01:20:05;15.00;98.90
758;DHT22;363;48.764;9.172;2023-05-24T01:22:46;14.80;98.50
758;DHT22;363;48.764;9.172;2023-05-24T01:28:00;14.70;98.90
758;DHT22;363;48.764;9.172;2023-05-24T01:30:28;14.80;98.70
758;DHT22;363;48.764;9.172;2023-05-24T01:32:54;14.80;98.90
758;DHT22;363;48.764;9.172;2023-05-24T01:35:20;14.80;99.20
758;DHT22;363;48.764;9.172;2023-05-24T01:37:46;15.00;98.80
758;DHT22;363;48.764;9.172;2023-05-24T01:40:11;14.70;98.40
758;DHT22;363;48.764;9.172;2023-05-24T01:42:44;14.70;98.10
758;DHT22;363;48.764;9.172;2023-05-24T01:45:18;14.90;97.90
758;DHT22;363;48.764;9.172;2023-05-24T01:48:07;15.10;98.10
758;DHT22;363;48.764;9.172;2023-05-24T01:50:52;14.60;97.30
758;DHT22;363;48.764;9.172;2023-05-24T01:53:19;14.70;97.50
758;DHT22;363;48.764;9.172;2023-05-24T01:55:47;14.40;97.40
758;DHT22;363;48.764;9.172;2023-05-24T01:58:17;14.50;97.70
758;DHT22;363;48.764;9.172;2023-05-24T02:00:44;14.40;97.50
758;DHT22;363;48.764;9.172;2023-05-24T02:03:13;14.50;97.40
758;DHT22;363;48.764;9.172;2023-05-24T02:05:39;14.90;97.50
758;DHT22;363;48.764;9.172;2023-05-24T02:08:04;14.80;98.10
758;DHT22;363;48.764;9.172;2023-05-24T02:10:30;14.90;98.40
758;DHT22;363;48.764;9.172;2023-05-24T02:12:55;15.00;97.60
758;DHT22;363;48.764;9.172;2023-05-24T02:15:21;14.50;97.20
758;DHT22;363;48.764;9.172;2023-05-24T02:17:47;14.60;97.30
758;DHT22;363;48.764;9.172;2023-05-24T02:20:13;15.00;97.50
758;DHT22;363;48.764;9.172;2023-05-24T02:22:38;14.80;97.30
758;DHT22;363;48.764;9.172;2023-05-24T02:25:05;15.00;97.60
758;DHT22;363;48.764;9.172;2023-05-24T02:27:30;14.40;97.30
758;DHT22;363;48.764;9.172;2023-05-24T02:29:56;14.30;97.60
758;DHT22;363;48.764;9.172;2023-05-24T02:32:21;14.40;98.00
758;DHT22;363;48.764;9.172;2023-05-24T02:34:47;14.00;98.10
758;DHT22;363;48.764;9.172;2023-05-24T02:37:12;14.00;98.60
758;DHT22;363;48.764;9.172;2023-05-24T02:39:40;14.00;98.60
758;DHT22;363;48.764;9.172;2023-05-24T02:42:06;14.30;98.70
758;DHT22;363;48.764;9.172;2023-05-24T02:44:33;13.80;98.60
758;DHT22;363;48.764;9.172;2023-05-24T02:46:58;14.50;98.90
758;DHT22;363;48.764;9.172;2023-05-24T02:49:24;14.20;98.60
758;DHT22;363;48.764;9.172;2023-05-24T02:51:50;14.70;98.80
758;DHT22;363;48.764;9.172;2023-05-24T02:54:15;14.40;98.50
758;DHT22;363;48.764;9.172;2023-05-24T02:56:42;14.10;98.30
758;DHT22;363;48.764;9.172;2023-05-24T02:59:07;14.40;98.20
758;DHT22;363;48.764;9.172;2023-05-24T03:01:33;14.40;98.20
758;DHT22;363;48.764;9.172;2023-05-24T03:03:58;14.20;98.20
758;DHT22;363;48.764;9.172;2023-05-24T03:06:24;15.80;99.20
758;DHT22;363;48.764;9.172;2023-05-24T03:08:49;13.90;98.40
758;DHT22;363;48.764;9.172;2023-05-24T03:11:15;13.90;98.50
758;DHT22;363;48.764;9.172;2023-05-24T03:13:41;14.10;99.30
758;DHT22;363;48.764;9.172;2023-05-24T03:16:06;14.30;99.00
758;DHT22;363;48.764;9.172;2023-05-24T03:18:32;13.80;98.90
758;DHT22;363;48.764;9.172;2023-05-24T03:20:58;13.80;98.80
758;DHT22;363;48.764;9.172;2023-05-24T03:23:23;14.10;99.20
758;DHT22;363;48.764;9.172;2023-05-24T03:25:49;14.00;99.30
758;DHT22;363;48.764;9.172;2023-05-24T03:28:14;14.00;99.00
758;DHT22;363;48.764;9.172;2023-05-24T03:30:40;13.80;99.20
758;DHT22;363;48.764;9.172;2023-05-24T03:33:05;13.70;99.10
758;DHT22;363;48.764;9.172;2023-05-24T03:35:31;13.90;99.60
758;DHT22;363;48.764;9.172;2023-05-24T03:37:56;13.50;99.40
758;DHT22;363;48.764;9.172;2023-05-24T03:40:22;13.60;99.60
758;DHT22;363;48.764;9.172;2023-05-24T03:42:49;13.70;99.20
758;DHT22;363;48.764;9.172;2023-05-24T03:45:15;13.60;99.20
758;DHT22;363;48.764;9.172;2023-05-24T03:47:41;13.70;99.10
758;DHT22;363;48.764;9.172;2023-05-24T03:50:07;14.00;99.40
758;DHT22;363;48.764;9.172;2023-05-24T03:52:32;13.90;99.40
758;DHT22;363;48.764;9.172;2023-05-24T03:54:58;13.70;99.10
758;DHT22;363;48.764;9.172;2023-05-24T03:57:23;13.60;99.00
758;DHT22;363;48.764;9.172;2023-05-24T03:59:49;13.30;98.80
758;DHT22;363;48.764;9.172;2023-05-24T04:02:14;13.90;99.30
758;DHT22;363;48.764;9.172;2023-05-24T04:04:40;14.10;99.00
758;DHT22;363;48.764;9.172;2023-05-24T04:07:05;14.00;99.00
758;DHT22;363;48.764;9.172;2023-05-24T04:09:32;13.80;99.10
758;DHT22;363;48.764;9.172;2023-05-24T04:11:57;13.40;98.90
758;DHT22;363;48.764;9.172;2023-05-24T04:14:23;13.90;99.40
758;DHT22;363;48.764;9.172;2023-05-24T04:16:48;13.50;99.20
758;DHT22;363;48.764;9.172;2023-05-24T04:19:14;13.40;99.40
758;DHT22;363;48.764;9.172;2023-05-24T04:21:39;13.50;99.90
758;DHT22;363;48.764;9.172;2023-05-24T04:24:05;13.40;99.90
758;DHT22;363;48.764;9.172;2023-05-24T04:26:31;14.30;99.90
758;DHT22;363;48.764;9.172;2023-05-24T04:28:58;13.50;99.70
758;DHT22;363;48.764;9.172;2023-05-24T04:31:24;13.70;99.80
758;DHT22;363;48.764;9.172;2023-05-24T04:33:50;13.30;99.40
758;DHT22;363;48.764;9.172;2023-05-24T04:36:16;13.90;99.70
758;DHT22;363;48.764;9.172;2023-05-24T04:38:42;13.80;99.90
758;DHT22;363;48.764;9.172;2023-05-24T04:41:10;13.40;99.50
758;DHT22;363;48.764;9.172;2023-05-24T04:43:35;13.30;99.70
758;DHT22;363;48.764;9.172;2023-05-24T04:46:01;13.40;99.90
758;DHT22;363;48.764;9.172;2023-05-24T04:48:27;13.40;99.60
758;DHT22;363;48.764;9.172;2023-05-24T04:50:54;13.80;99.90
758;DHT22;363;48.764;9.172;2023-05-24T04:53:20;13.40;99.80
758;DHT22;363;48.764;9.172;2023-05-24T04:55:46;13.50;99.80
758;DHT22;363;48.764;9.172;2023-05-24T04:58:12;13.30;99.70
758;DHT22;363;48.764;9.172;2023-05-24T05:00:38;13.60;99.90
758;DHT22;363;48.764;9.172;2023-05-24T05:03:04;13.50;99.90
758;DHT22;363;48.764;9.172;2023-05-24T05:05:29;13.50;99.70
758;DHT22;363;48.764;9.172;2023-05-24T05:07:55;13.30;99.70
758;DHT22;363;48.764;9.172;2023-05-24T05:10:21;13.20;99.90
758;DHT22;363;48.764;9.172;2023-05-24T05:12:47;13.80;99.90
758;DHT22;363;48.764;9.172;2023-05-24T05:15:13;13.60;99.90
758;DHT22;363;48.764;9.172;2023-05-24T05:17:38;13.60;99.90
758;DHT22;363;48.764;9.172;2023-05-24T05:20:04;14.00;99.90
758;DHT22;363;48.764;9.172;2023-05-24T05:22:30;13.50;99.90
758;DHT22;363;48.764;9.172;2023-05-24T05:24:55;13.90;99.90
758;DHT22;363;48.764;9.172;2023-05-24T05:27:21;13.40;99.70
758;DHT22;363;48.764;9.172;2023-05-24T05:29:46;13.60;99.90
758;DHT22;363;48.764;9.172;2023-05-24T05:32:12;14.20;99.90
758;DHT22;363;48.764;9.172;2023-05-24T05:34:38;13.80;99.40
758;DHT22;363;48.764;9.172;2023-05-24T05:37:03;14.10;99.90
758;DHT22;363;48.764;9.172;2023-05-24T05:39:29;13.70;99.60
758;DHT22;363;48.764;9.172;2023-05-24T05:41:56;13.60;99.50
758;DHT22;363;48.764;9.172;2023-05-24T05:44:22;13.60;99.60
758;DHT22;363;48.764;9.172;2023-05-24T05:46:47;14.80;99.60
758;DHT22;363;48.764;9.172;2023-05-24T05:49:14;13.70;99.10
758;DHT22;363;48.764;9.172;2023-05-24T05:51:40;13.50;98.80
758;DHT22;363;48.764;9.172;2023-05-24T05:54:06;14.20;99.50
758;DHT22;363;48.764;9.172;2023-05-24T05:56:38;13.90;99.30
758;DHT22;363;48.764;9.172;2023-05-24T05:59:10;13.90;99.40
758;DHT22;363;48.764;9.172;2023-05-24T06:01:35;13.50;99.50
758;DHT22;363;48.764;9.172;2023-05-24T06:04:01;13.80;99.20
758;DHT22;363;48.764;9.172;2023-05-24T06:06:26;13.70;99.20
758;DHT22;363;48.764;9.172;2023-05-24T06:08:52;13.80;99.10
758;DHT22;363;48.764;9.172;2023-05-24T06:11:17;14.00;98.30
758;DHT22;363;48.764;9.172;2023-05-24T06:13:43;13.80;98.50
758;DHT22;363;48.764;9.172;2023-05-24T06:16:08;14.30;99.60
758;DHT22;363;48.764;9.172;2023-05-24T06:18:34;14.00;98.70
758;DHT22;363;48.764;9.172;2023-05-24T06:21:01;14.50;98.90
758;DHT22;363;48.764;9.172;2023-05-24T06:23:26;14.50;98.50
758;DHT22;363;48.764;9.172;2023-05-24T06:25:52;14.20;98.10
758;DHT22;363;48.764;9.172;2023-05-24T06:28:17;14.20;98.50
758;DHT22;363;48.764;9.172;2023-05-24T06:30:43;14.60;98.50
758;DHT22;363;48.764;9.172;2023-05-24T06:33:09;14.30;98.00
758;DHT22;363;48.764;9.172;2023-05-24T06:35:34;14.40;97.70
758;DHT22;363;48.764;9.172;2023-05-24T06:38:00;14.50;97.80
758;DHT22;363;48.764;9.172;2023-05-24T06:40:25;14.50;98.00
758;DHT22;363;48.764;9.172;2023-05-24T06:42:51;14.70;97.50
758;DHT22;363;48.764;9.172;2023-05-24T06:45:16;14.90;97.50
758;DHT22;363;48.764;9.172;2023-05-24T06:47:42;15.10;97.10
758;DHT22;363;48.764;9.172;2023-05-24T06:50:08;14.60;97.40
758;DHT22;363;48.764;9.172;2023-05-24T06:52:33;14.90;97.10
758;DHT22;363;48.764;9.172;2023-05-24T06:54:59;14.90;96.70
758;DHT22;363;48.764;9.172;2023-05-24T06:57:24;14.40;96.40
758;DHT22;363;48.764;9.172;2023-05-24T06:59:51;14.60;96.60
758;DHT22;363;48.764;9.172;2023-05-24T07:02:16;14.80;96.60
758;DHT22;363;48.764;9.172;2023-05-24T07:04:42;14.90;97.10
758;DHT22;363;48.764;9.172;2023-05-24T07:07:08;15.00;97.30
758;DHT22;363;48.764;9.172;2023-05-24T07:09:38;14.40;97.30
758;DHT22;363;48.764;9.172;2023-05-24T07:12:03;14.50;97.40
758;DHT22;363;48.764;9.172;2023-05-24T07:14:29;14.30;97.70
758;DHT22;363;48.764;9.172;2023-05-24T07:16:54;14.30;97.80
758;DHT22;363;48.764;9.172;2023-05-24T07:19:22;14.30;98.00
758;DHT22;363;48.764;9.172;2023-05-24T07:21:51;14.90;98.00
758;DHT22;363;48.764;9.172;2023-05-24T07:24:17;14.70;97.70
758;DHT22;363;48.764;9.172;2023-05-24T07:26:43;14.40;97.30
758;DHT22;363;48.764;9.172;2023-05-24T07:29:08;14.70;97.80
758;DHT22;363;48.764;9.172;2023-05-24T07:31:34;14.30;98.00
758;DHT22;363;48.764;9.172;2023-05-24T07:34:01;14.20;98.40
758;DHT22;363;48.764;9.172;2023-05-24T07:36:26;14.10;98.00
758;DHT22;363;48.764;9.172;2023-05-24T07:38:56;14.00;98.10
758;DHT22;363;48.764;9.172;2023-05-24T07:41:27;14.10;97.90
758;DHT22;363;48.764;9.172;2023-05-24T07:43:54;14.10;98.20
758;DHT22;363;48.764;9.172;2023-05-24T07:46:20;14.10;98.00
758;DHT22;363;48.764;9.172;2023-05-24T07:48:45;14.30;97.90
758;DHT22;363;48.764;9.172;2023-05-24T07:51:11;14.30;97.60
758;DHT22;363;48.764;9.172;2023-05-24T07:53:36;14.80;97.20
758;DHT22;363;48.764;9.172;2023-05-24T07:56:02;14.40;97.60
758;DHT22;363;48.764;9.172;2023-05-24T07:58:28;14.50;97.70
758;DHT22;363;48.764;9.172;2023-05-24T08:00:53;13.90;97.50
758;DHT22;363;48.764;9.172;2023-05-24T08:03:19;14.10;98.00
758;DHT22;363;48.764;9.172;2023-05-24T08:05:44;13.90;98.20
758;DHT22;363;48.764;9.172;2023-05-24T08:08:10;13.90;98.00
758;DHT22;363;48.764;9.172;2023-05-24T08:10:35;14.70;97.90
758;DHT22;363;48.764;9.172;2023-05-24T08:13:02;14.50;96.80
758;DHT22;363;48.764;9.172;2023-05-24T08:15:27;15.10;96.70
758;DHT22;363;48.764;9.172;2023-05-24T08:17:53;14.90;97.10
758;DHT22;363;48.764;9.172;2023-05-24T08:20:18;15.50;96.50
758;DHT22;363;48.764;9.172;2023-05-24T08:22:45;15.30;96.20
758;DHT22;363;48.764;9.172;2023-05-24T08:25:12;14.90;95.50
758;DHT22;363;48.764;9.172;2023-05-24T08:27:39;15.30;95.90
758;DHT22;363;48.764;9.172;2023-05-24T08:30:06;14.90;95.80
758;DHT22;363;48.764;9.172;2023-05-24T08:32:32;15.00;95.90
758;DHT22;363;48.764;9.172;2023-05-24T08:34:58;15.20;96.40
758;DHT22;363;48.764;9.172;2023-05-24T08:37:24;14.80;95.90
758;DHT22;363;48.764;9.172;2023-05-24T08:39:49;14.90;96.10
758;DHT22;363;48.764;9.172;2023-05-24T08:42:15;14.70;96.70
758;DHT22;363;48.764;9.172;2023-05-24T08:45:02;14.50;96.70
758;DHT22;363;48.764;9.172;2023-05-24T08:47:29;15.20;96.60
758;DHT22;363;48.764;9.172;2023-05-24T08:49:55;14.90;96.30
758;DHT22;363;48.764;9.172;2023-05-24T08:52:22;14.70;96.50
758;DHT22;363;48.764;9.172;2023-05-24T08:54:48;14.90;96.80
758;DHT22;363;48.764;9.172;2023-05-24T08:57:14;15.40;96.20
758;DHT22;363;48.764;9.172;2023-05-24T08:59:41;14.80;95.50
758;DHT22;363;48.764;9.172;2023-05-24T09:02:08;15.10;95.70
758;DHT22;363;48.764;9.172;2023-05-24T09:04:37;15.40;95.30
758;DHT22;363;48.764;9.172;2023-05-24T09:07:04;14.90;95.70
758;DHT22;363;48.764;9.172;2023-05-24T09:09:33;15.10;95.40
758;DHT22;363;48.764;9.172;2023-05-24T09:12:03;15.60;95.60
758;DHT22;363;48.764;9.172;2023-05-24T09:14:29;15.30;95.40
758;DHT22;363;48.764;9.172;2023-05-24T09:16:55;15.60;95.40
758;DHT22;363;48.764;9.172;2023-05-24T09:19:21;15.00;94.90
758;DHT22;363;48.764;9.172;2023-05-24T09:21:48;15.00;95.20
758;DHT22;363;48.764;9.172;2023-05-24T09:24:14;15.30;95.40
758;DHT22;363;48.764;9.172;2023-05-24T09:26:40;15.40;95.60
758;DHT22;363;48.764;9.172;2023-05-24T09:29:07;15.10;95.50
758;DHT22;363;48.764;9.172;2023-05-24T09:31:34;15.00;94.90
758;DHT22;363;48.764;9.172;2023-05-24T09:34:00;15.10;95.00
758;DHT22;363;48.764;9.172;2023-05-24T09:36:26;15.00;95.70
758;DHT22;363;48.764;9.172;2023-05-24T09:39:16;15.00;96.10
758;DHT22;363;48.764;9.172;2023-05-24T09:41:42;15.60;95.70
758;DHT22;363;48.764;9.172;2023-05-24T09:44:12;15.50;95.20
758;DHT22;363;48.764;9.172;2023-05-24T09:46:37;15.20;94.70
758;DHT22;363;48.764;9.172;2023-05-24T09:49:03;15.70;95.10
758;DHT22;363;48.764;9.172;2023-05-24T09:51:31;15.40;94.90
758;DHT22;363;48.764;9.172;2023-05-24T09:54:00;15.70;94.40
758;DHT22;363;48.764;9.172;2023-05-24T09:56:26;15.50;93.70
758;DHT22;363;48.764;9.172;2023-05-24T09:58:52;15.60;93.80
758;DHT22;363;48.764;9.172;2023-05-24T10:01:22;15.30;93.60
758;DHT22;363;48.764;9.172;2023-05-24T10:03:56;15.60;94.10
758;DHT22;363;48.764;9.172;2023-05-24T10:06:23;15.00;94.10
758;DHT22;363;48.764;9.172;2023-05-24T10:08:51;15.20;95.00
758;DHT22;363;48.764;9.172;2023-05-24T10:11:19;15.40;95.00
758;DHT22;363;48.764;9.172;2023-05-24T10:13:48;15.30;95.00
758;DHT22;363;48.764;9.172;2023-05-24T10:16:17;15.40;94.80
758;DHT22;363;48.764;9.172;2023-05-24T10:18:42;15.50;95.50
758;DHT22;363;48.764;9.172;2023-05-24T10:21:09;15.30;94.10
758;DHT22;363;48.764;9.172;2023-05-24T10:23:38;15.30;94.40
758;DHT22;363;48.764;9.172;2023-05-24T10:26:09;15.10;94.80
758;DHT22;363;48.764;9.172;2023-05-24T10:28:44;15.20;95.00
758;DHT22;363;48.764;9.172;2023-05-24T10:31:14;14.90;94.90
758;DHT22;363;48.764;9.172;2023-05-24T10:33:41;15.30;95.50
758;DHT22;363;48.764;9.172;2023-05-24T10:36:09;15.10;95.10
758;DHT22;363;48.764;9.172;2023-05-24T10:38:39;15.40;94.80
758;DHT22;363;48.764;9.172;2023-05-24T10:41:06;15.30;95.30
758;DHT22;363;48.764;9.172;2023-05-24T10:43:37;15.10;95.20
758;DHT22;363;48.764;9.172;2023-05-24T10:46:03;15.10;94.30
758;DHT22;363;48.764;9.172;2023-05-24T10:48:33;15.20;94.70
758;DHT22;363;48.764;9.172;2023-05-24T10:51:26;15.10;94.30
758;DHT22;363;48.764;9.172;2023-05-24T10:53:48;15.00;94.20
758;DHT22;363;48.764;9.172;2023-05-24T10:56:14;15.10;94.70
758;DHT22;363;48.764;9.172;2023-05-24T10:58:44;15.20;93.90
758;DHT22;363;48.764;9.172;2023-05-24T11:01:26;15.00;93.80
758;DHT22;363;48.764;9.172;2023-05-24T11:03:52;15.00;94.10
758;DHT22;363;48.764;9.172;2023-05-24T11:06:17;14.90;94.90
758;DHT22;363;48.764;9.172;2023-05-24T11:08:44;14.70;94.50
758;DHT22;363;48.764;9.172;2023-05-24T11:11:12;14.90;94.70
758;DHT22;363;48.764;9.172;2023-05-24T11:13:39;15.20;93.20
758;DHT22;363;48.764;9.172;2023-05-24T11:16:05;15.50;92.50
758;DHT22;363;48.764;9.172;2023-05-24T11:18:31;15.80;92.90
758;DHT22;363;48.764;9.172;2023-05-24T11:21:03;15.40;93.30
758;DHT22;363;48.764;9.172;2023-05-24T11:23:30;15.20;93.20
758;DHT22;363;48.764;9.172;2023-05-24T11:25:56;15.40;93.10
758;DHT22;363;48.764;9.172;2023-05-24T11:28:22;15.50;92.00
758;DHT22;363;48.764;9.172;2023-05-24T11:30:48;15.80;92.20
758;DHT22;363;48.764;9.172;2023-05-24T11:33:20;16.10;92.00
758;DHT22;363;48.764;9.172;2023-05-24T11:35:50;16.40;91.40
758;DHT22;363;48.764;9.172;2023-05-24T11:38:18;16.20;90.70
758;DHT22;363;48.764;9.172;2023-05-24T11:40:47;17.20;90.50
758;DHT22;363;48.764;9.172;2023-05-24T11:43:15;17.10;88.90
758;DHT22;363;48.764;9.172;2023-05-24T11:45:43;16.90;87.30
758;DHT22;363;48.764;9.172;2023-05-24T11:48:10;17.10;88.20
758;DHT22;363;48.764;9.172;2023-05-24T11:50:38;17.40;86.50
758;DHT22;363;48.764;9.172;2023-05-24T11:53:03;17.70;85.30
758;DHT22;363;48.764;9.172;2023-05-24T11:55:29;18.10;84.70
758;DHT22;363;48.764;9.172;2023-05-24T11:57:57;17.80;82.10
758;DHT22;363;48.764;9.172;2023-05-24T12:00:26;17.80;81.50
758;DHT22;363;48.764;9.172;2023-05-24T12:02:55;17.90;82.50
758;DHT22;363;48.764;9.172;2023-05-24T12:05:21;17.80;82.20
758;DHT22;363;48.764;9.172;2023-05-24T12:07:46;17.60;82.10
758;DHT22;363;48.764;9.172;2023-05-24T12:10:15;17.60;79.40
758;DHT22;363;48.764;9.172;2023-05-24T12:12:44;17.60;76.00
758;DHT22;363;48.764;9.172;2023-05-24T12:15:10;17.70;77.40
758;DHT22;363;48.764;9.172;2023-05-24T12:17:36;17.10;76.00
758;DHT22;363;48.764;9.172;2023-05-24T12:20:02;17.10;73.60
758;DHT22;363;48.764;9.172;2023-05-24T12:22:30;17.60;77.20
758;DHT22;363;48.764;9.172;2023-05-24T12:24:56;17.20;78.70
758;DHT22;363;48.764;9.172;2023-05-24T12:27:26;17.30;79.90
758;DHT22;363;48.764;9.172;2023-05-24T12:29:52;17.50;78.90
758;DHT22;363;48.764;9.172;2023-05-24T12:32:17;17.40;78.70
758;DHT22;363;48.764;9.172;2023-05-24T12:34:43;17.60;78.20
758;DHT22;363;48.764;9.172;2023-05-24T12:37:10;18.20;76.60
758;DHT22;363;48.764;9.172;2023-05-24T12:39:36;17.90;75.90
758;DHT22;363;48.764;9.172;2023-05-24T12:42:03;18.40;76.10
758;DHT22;363;48.764;9.172;2023-05-24T12:44:38;17.90;75.50
758;DHT22;363;48.764;9.172;2023-05-24T12:47:05;18.50;76.80
758;DHT22;363;48.764;9.172;2023-05-24T12:49:31;18.10;74.00
758;DHT22;363;48.764;9.172;2023-05-24T12:51:57;18.10;74.80
758;DHT22;363;48.764;9.172;2023-05-24T12:54:24;17.70;75.70
758;DHT22;363;48.764;9.172;2023-05-24T12:56:51;17.90;77.50
758;DHT22;363;48.764;9.172;2023-05-24T12:59:17;17.50;77.10
758;DHT22;363;48.764;9.172;2023-05-24T13:01:42;17.60;74.40
758;DHT22;363;48.764;9.172;2023-05-24T13:04:11;18.20;75.20
758;DHT22;363;48.764;9.172;2023-05-24T13:06:36;18.00;74.70
758;DHT22;363;48.764;9.172;2023-05-24T13:09:03;18.00;76.70
758;DHT22;363;48.764;9.172;2023-05-24T13:11:28;17.60;75.50
758;DHT22;363;48.764;9.172;2023-05-24T13:13:55;18.10;74.90
758;DHT22;363;48.764;9.172;2023-05-24T13:16:22;18.40;74.00
758;DHT22;363;48.764;9.172;2023-05-24T13:18:48;18.30;73.10
758;DHT22;363;48.764;9.172;2023-05-24T13:21:14;16.70;70.40
758;DHT22;363;48.764;9.172;2023-05-24T13:23:41;18.50;73.10
758;DHT22;363;48.764;9.172;2023-05-24T13:26:07;18.10;72.40
758;DHT22;363;48.764;9.172;2023-05-24T13:28:33;18.50;73.30
758;DHT22;363;48.764;9.172;2023-05-24T13:30:59;18.00;72.50
758;DHT22;363;48.764;9.172;2023-05-24T13:33:25;18.80;72.60
758;DHT22;363;48.764;9.172;2023-05-24T13:35:54;18.30;71.90
758;DHT22;363;48.764;9.172;2023-05-24T13:38:20;18.40;73.80
758;DHT22;363;48.764;9.172;2023-05-24T13:40:46;18.40;73.20
758;DHT22;363;48.764;9.172;2023-05-24T13:43:12;18.40;72.70
758;DHT22;363;48.764;9.172;2023-05-24T13:45:38;18.60;74.00
758;DHT22;363;48.764;9.172;2023-05-24T13:48:03;18.60;71.80
758;DHT22;363;48.764;9.172;2023-05-24T13:50:34;18.80;69.90
758;DHT22;363;48.764;9.172;2023-05-24T13:52:59;18.90;72.10
758;DHT22;363;48.764;9.172;2023-05-24T13:55:27;18.70;71.30
758;DHT22;363;48.764;9.172;2023-05-24T13:57:53;18.50;71.30
758;DHT22;363;48.764;9.172;2023-05-24T14:00:20;19.90;73.20
758;DHT22;363;48.764;9.172;2023-05-24T14:02:46;18.10;72.90
758;DHT22;363;48.764;9.172;2023-05-24T14:05:12;18.40;72.50
758;DHT22;363;48.764;9.172;2023-05-24T14:07:37;18.20;71.70
758;DHT22;363;48.764;9.172;2023-05-24T14:10:03;18.10;70.90
758;DHT22;363;48.764;9.172;2023-05-24T14:12:28;17.80;70.50
758;DHT22;363;48.764;9.172;2023-05-24T14:14:55;17.60;70.50
758;DHT22;363;48.764;9.172;2023-05-24T14:17:22;17.00;70.30
758;DHT22;363;48.764;9.172;2023-05-24T14:19:48;17.50;72.90
758;DHT22;363;48.764;9.172;2023-05-24T14:22:13;17.10;72.80
758;DHT22;363;48.764;9.172;2023-05-24T14:24:39;17.80;73.50
758;DHT22;363;48.764;9.172;2023-05-24T14:27:04;17.90;72.20
758;DHT22;363;48.764;9.172;2023-05-24T14:29:31;17.90;70.90
758;DHT22;363;48.764;9.172;2023-05-24T14:31:57;18.20;69.60
758;DHT22;363;48.764;9.172;2023-05-24T14:34:23;18.20;68.00
758;DHT22;363;48.764;9.172;2023-05-24T14:36:48;17.70;67.80
758;DHT22;363;48.764;9.172;2023-05-24T14:39:14;18.10;66.90
758;DHT22;363;48.764;9.172;2023-05-24T14:41:40;18.20;67.80
758;DHT22;363;48.764;9.172;2023-05-24T14:44:05;18.40;69.60
758;DHT22;363;48.764;9.172;2023-05-24T14:46:31;18.10;68.90
758;DHT22;363;48.764;9.172;2023-05-24T14:48:56;18.70;66.80
758;DHT22;363;48.764;9.172;2023-05-24T14:51:22;18.70;65.60
758;DHT22;363;48.764;9.172;2023-05-24T14:53:47;18.70;66.20
758;DHT22;363;48.764;9.172;2023-05-24T14:56:13;18.70;65.20
758;DHT22;363;48.764;9.172;2023-05-24T14:58:41;18.90;65.60
758;DHT22;363;48.764;9.172;2023-05-24T15:01:07;19.10;65.70
758;DHT22;363;48.764;9.172;2023-05-24T15:03:33;19.00;64.80
758;DHT22;363;48.764;9.172;2023-05-24T15:05:59;19.40;65.80
758;DHT22;363;48.764;9.172;2023-05-24T15:08:25;19.90;66.60
758;DHT22;363;48.764;9.172;2023-05-24T15:10:51;19.80;66.30
758;DHT22;363;48.764;9.172;2023-05-24T15:13:16;19.80;63.40
758;DHT22;363;48.764;9.172;2023-05-24T15:15:43;19.90;64.40
758;DHT22;363;48.764;9.172;2023-05-24T15:18:09;19.90;65.60
758;DHT22;363;48.764;9.172;2023-05-24T15:20:34;19.40;66.50
758;DHT22;363;48.764;9.172;2023-05-24T15:23:00;19.00;67.10
758;DHT22;363;48.764;9.172;2023-05-24T15:25:26;18.80;66.20
758;DHT22;363;48.764;9.172;2023-05-24T15:27:51;18.40;66.10
758;DHT22;363;48.764;9.172;2023-05-24T15:30:18;18.50;66.30
758;DHT22;363;48.764;9.172;2023-05-24T15:32:43;18.60;67.20
758;DHT22;363;48.764;9.172;2023-05-24T15:35:12;18.20;67.60
758;DHT22;363;48.764;9.172;2023-05-24T15:37:38;17.70;67.90
758;DHT22;363;48.764;9.172;2023-05-24T15:40:05;18.00;70.20
758;DHT22;363;48.764;9.172;2023-05-24T15:42:32;17.30;69.50
758;DHT22;363;48.764;9.172;2023-05-24T15:44:57;17.90;69.70
758;DHT22;363;48.764;9.172;2023-05-24T15:47:22;18.40;69.10
758;DHT22;363;48.764;9.172;2023-05-24T15:49:53;18.50;69.80
758;DHT22;363;48.764;9.172;2023-05-24T15:52:19;18.20;69.50
758;DHT22;363;48.764;9.172;2023-05-24T15:54:44;19.50;71.10
758;DHT22;363;48.764;9.172;2023-05-24T15:57:10;18.30;69.10
758;DHT22;363;48.764;9.172;2023-05-24T15:59:35;18.70;68.50
758;DHT22;363;48.764;9.172;2023-05-24T16:02:03;18.40;67.60
758;DHT22;363;48.764;9.172;2023-05-24T16:04:29;18.10;67.80
758;DHT22;363;48.764;9.172;2023-05-24T16:06:54;18.60;67.80
758;DHT22;363;48.764;9.172;2023-05-24T16:09:21;18.30;68.20
758;DHT22;363;48.764;9.172;2023-05-24T16:11:47;17.90;68.60
758;DHT22;363;48.764;9.172;2023-05-24T16:14:13;18.20;69.60
758;DHT22;363;48.764;9.172;2023-05-24T16:16:40;17.50;70.00
758;DHT22;363;48.764;9.172;2023-05-24T16:19:06;17.50;70.30
758;DHT22;363;48.764;9.172;2023-05-24T16:21:32;17.60;70.90
758;DHT22;363;48.764;9.172;2023-05-24T16:23:57;17.40;69.80
758;DHT22;363;48.764;9.172;2023-05-24T16:26:23;17.20;70.60
758;DHT22;363;48.764;9.172;2023-05-24T16:28:48;17.20;71.30
758;DHT22;363;48.764;9.172;2023-05-24T16:31:14;17.30;69.70
758;DHT22;363;48.764;9.172;2023-05-24T16:33:40;17.20;70.20
758;DHT22;363;48.764;9.172;2023-05-24T16:36:06;17.50;68.90
758;DHT22;363;48.764;9.172;2023-05-24T16:38:32;17.70;70.80